createdAt,value
2022-08-28T00:01:23.562Z,18.66
2022-08-28T00:03:25.346Z,18.67
2022-08-28T00:05:30.008Z,18.66
2022-08-28T00:07:31.971Z,18.57
2022-08-28T00:09:33.990Z,18.55
2022-08-28T00:11:35.789Z,18.54
2022-08-28T00:13:38.416Z,18.55
2022-08-28T00:15:40.176Z,18.57
2022-08-28T00:17:41.965Z,18.56
2022-08-28T00:19:43.813Z,18.51
2022-08-28T00:21:46.662Z,18.45
2022-08-28T00:23:48.418Z,18.48
2022-08-28T00:25:50.133Z,18.40
2022-08-28T00:27:57.000Z,18.44
2022-08-28T00:29:58.789Z,18.43
2022-08-28T00:32:00.942Z,18.41
2022-08-28T00:34:02.775Z,18.32
2022-08-28T00:36:04.672Z,18.30
2022-08-28T00:38:07.567Z,18.31
2022-08-28T00:40:11.409Z,18.27
2022-08-28T00:42:13.453Z,18.30
2022-08-28T00:44:19.417Z,18.27
2022-08-28T00:46:23.854Z,18.34
2022-08-28T00:48:25.722Z,18.30
2022-08-28T00:50:32.159Z,18.32
2022-08-28T00:52:34.308Z,18.26
2022-08-28T00:54:50.506Z,18.25
2022-08-28T00:57:06.273Z,18.24
2022-08-28T00:59:11.905Z,18.18
2022-08-28T01:01:14.680Z,18.11
2022-08-28T01:03:16.455Z,18.08
2022-08-28T01:05:19.289Z,17.95
2022-08-28T01:07:21.197Z,17.99
2022-08-28T01:09:26.849Z,18.03
2022-08-28T01:11:29.951Z,18.03
2022-08-28T01:13:32.812Z,18.01
2022-08-28T01:15:37.349Z,18.04
2022-08-28T01:17:43.790Z,18.02
2022-08-28T01:19:53.432Z,17.99
2022-08-28T01:22:07.210Z,17.98
2022-08-28T01:24:16.267Z,17.95
2022-08-28T01:26:18.462Z,17.93
2022-08-28T01:28:20.343Z,17.80
2022-08-28T01:30:23.400Z,17.78
2022-08-28T01:32:53.368Z,17.74
2022-08-28T01:34:55.191Z,17.70
2022-08-28T01:36:57.519Z,17.67
2022-08-28T01:39:09.591Z,17.71
2022-08-28T01:41:12.482Z,17.70
2022-08-28T01:43:23.069Z,17.64
2022-08-28T01:45:24.983Z,17.65
2022-08-28T01:47:26.754Z,17.63
2022-08-28T01:49:28.539Z,17.63
2022-08-28T01:51:31.448Z,17.55
2022-08-28T01:53:37.937Z,17.48
2022-08-28T01:55:40.287Z,17.46
2022-08-28T01:57:50.464Z,17.53
2022-08-28T01:59:52.524Z,17.49
2022-08-28T02:01:54.431Z,17.53
2022-08-28T02:03:56.671Z,17.49
2022-08-28T02:05:58.524Z,17.60
2022-08-28T02:08:02.575Z,17.51
2022-08-28T02:10:06.448Z,17.50
2022-08-28T02:12:08.365Z,17.45
2022-08-28T02:14:10.119Z,17.45
2022-08-28T02:16:11.963Z,17.36
2022-08-28T02:18:13.915Z,17.38
2022-08-28T02:20:16.047Z,17.37
2022-08-28T02:22:18.340Z,17.38
2022-08-28T02:24:20.163Z,17.49
2022-08-28T02:26:21.976Z,17.53
2022-08-28T02:28:23.853Z,17.39
2022-08-28T02:30:25.657Z,17.38
2022-08-28T02:32:27.474Z,17.35
2022-08-28T02:34:29.234Z,17.27
2022-08-28T02:36:30.961Z,17.29
2022-08-28T02:38:32.694Z,17.29
2022-08-28T02:40:34.842Z,17.37
2022-08-28T02:42:36.973Z,17.36
2022-08-28T02:44:38.867Z,17.39
2022-08-28T02:46:40.645Z,17.31
2022-08-28T02:48:42.551Z,17.34
2022-08-28T02:50:44.971Z,17.30
2022-08-28T02:52:46.964Z,17.28
2022-08-28T02:54:48.783Z,17.30
2022-08-28T02:56:50.678Z,17.24
2022-08-28T02:58:52.413Z,17.22
2022-08-28T03:00:56.607Z,17.17
2022-08-28T03:02:58.449Z,17.18
2022-08-28T03:05:00.221Z,17.21
2022-08-28T03:07:01.992Z,17.18
2022-08-28T03:09:05.060Z,17.23
2022-08-28T03:11:06.845Z,17.21
2022-08-28T03:13:08.585Z,17.20
2022-08-28T03:15:10.758Z,17.10
2022-08-28T03:17:12.511Z,17.20
2022-08-28T03:19:14.237Z,17.18
2022-08-28T03:21:16.245Z,17.07
2022-08-28T03:23:17.967Z,17.08
2022-08-28T03:25:19.915Z,17.10
2022-08-28T03:27:21.913Z,17.08
2022-08-28T03:29:23.677Z,17.09
2022-08-28T03:31:27.958Z,16.91
2022-08-28T03:33:29.785Z,17.14
2022-08-28T03:35:31.610Z,17.17
2022-08-28T03:37:33.425Z,17.20
2022-08-28T03:39:35.214Z,17.15
2022-08-28T03:41:36.960Z,17.14
2022-08-28T03:43:43.869Z,17.14
2022-08-28T03:46:01.885Z,17.09
2022-08-28T03:48:05.015Z,17.05
2022-08-28T03:50:07.861Z,17.02
2022-08-28T03:52:12.756Z,17.08
2022-08-28T03:54:14.528Z,17.15
2022-08-28T03:56:19.459Z,17.18
2022-08-28T03:58:21.494Z,17.15
2022-08-28T04:00:23.330Z,17.23
2022-08-28T04:02:25.075Z,17.26
2022-08-28T04:04:26.895Z,17.31
2022-08-28T04:06:28.707Z,17.34
2022-08-28T04:08:30.495Z,17.32
2022-08-28T04:10:32.368Z,17.32
2022-08-28T04:12:35.251Z,17.33
2022-08-28T04:14:37.609Z,17.36
2022-08-28T04:16:39.447Z,17.51
2022-08-28T04:18:43.039Z,17.53
2022-08-28T04:20:46.466Z,17.48
2022-08-28T04:22:48.791Z,17.44
2022-08-28T04:24:56.903Z,17.46
2022-08-28T04:26:58.699Z,17.53
2022-08-28T04:29:00.463Z,17.65
2022-08-28T04:31:02.730Z,17.68
2022-08-28T04:33:04.513Z,17.75
2022-08-28T04:35:08.643Z,17.85
2022-08-28T04:37:10.473Z,17.91
2022-08-28T04:39:12.222Z,17.84
2022-08-28T04:41:16.218Z,18.06
2022-08-28T04:43:17.994Z,18.28
2022-08-28T04:45:19.740Z,18.32
2022-08-28T04:47:21.503Z,18.49
2022-08-28T04:49:23.379Z,18.81
2022-08-28T04:51:28.794Z,19.23
2022-08-28T04:53:30.610Z,19.23
2022-08-28T04:55:53.515Z,19.13
2022-08-28T04:57:54.067Z,19.19
2022-08-28T04:59:55.862Z,18.89
2022-08-28T05:01:57.652Z,18.99
2022-08-28T05:04:01.842Z,18.92
2022-08-28T05:06:04.068Z,19.05
2022-08-28T05:08:05.788Z,19.00
2022-08-28T05:10:07.910Z,18.99
2022-08-28T05:12:09.679Z,19.01
2022-08-28T05:14:15.921Z,19.23
2022-08-28T05:16:19.843Z,19.36
2022-08-28T05:18:22.569Z,19.41
2022-08-28T05:20:24.282Z,19.65
2022-08-28T05:22:26.041Z,19.83
2022-08-28T05:24:27.878Z,20.16
2022-08-28T05:26:30.192Z,20.63
2022-08-28T05:28:32.072Z,21.22
2022-08-28T05:30:34.069Z,21.67
2022-08-28T05:32:36.369Z,22.00
2022-08-28T05:34:38.095Z,22.06
2022-08-28T05:36:40.188Z,22.69
2022-08-28T05:38:42.371Z,23.15
2022-08-28T05:40:48.872Z,22.90
2022-08-28T05:42:51.475Z,22.69
2022-08-28T05:44:54.752Z,22.95
2022-08-28T05:46:56.568Z,22.50
2022-08-28T05:48:58.380Z,22.12
2022-08-28T05:51:13.646Z,22.29
2022-08-28T05:53:16.934Z,21.93
2022-08-28T05:55:18.771Z,21.54
2022-08-28T05:57:20.499Z,21.57
2022-08-28T05:59:22.223Z,22.00
2022-08-28T06:01:30.724Z,21.40
2022-08-28T06:03:32.645Z,21.80
2022-08-28T06:05:34.395Z,22.29
2022-08-28T06:07:36.417Z,22.62
2022-08-28T06:09:38.434Z,22.70
2022-08-28T06:11:44.624Z,22.87
2022-08-28T06:13:48.385Z,23.41
2022-08-28T06:15:50.141Z,23.92
2022-08-28T06:17:52.145Z,24.39
2022-08-28T06:19:53.868Z,24.56
2022-08-28T06:21:58.037Z,24.98
2022-08-28T06:24:00.042Z,24.34
2022-08-28T06:26:01.792Z,24.07
2022-08-28T06:28:04.034Z,24.11
2022-08-28T06:30:06.799Z,24.43
2022-08-28T06:32:08.592Z,24.43
2022-08-28T06:34:10.399Z,24.77
2022-08-28T06:36:12.479Z,24.76
2022-08-28T06:38:14.714Z,24.76
2022-08-28T06:40:16.809Z,24.62
2022-08-28T06:42:18.612Z,25.12
2022-08-28T06:44:21.671Z,25.34
2022-08-28T06:46:23.932Z,24.50
2022-08-28T06:48:28.663Z,24.85
2022-08-28T06:50:30.384Z,25.39
2022-08-28T06:52:32.115Z,25.12
2022-08-28T06:54:33.881Z,25.31
2022-08-28T06:56:35.857Z,25.35
2022-08-28T06:58:50.118Z,25.74
2022-08-28T07:01:03.101Z,25.74
2022-08-28T07:03:05.634Z,25.66
2022-08-28T07:05:07.669Z,26.23
2022-08-28T07:07:09.403Z,26.73
2022-08-28T07:09:17.483Z,26.96
2022-08-28T07:11:26.101Z,26.77
2022-08-28T07:13:32.110Z,26.92
2022-08-28T07:15:35.477Z,27.17
2022-08-28T07:17:44.159Z,27.56
2022-08-28T07:19:45.881Z,27.60
2022-08-28T07:21:47.991Z,27.76
2022-08-28T07:23:50.390Z,27.38
2022-08-28T07:25:52.537Z,27.95
2022-08-28T07:27:54.278Z,27.96
2022-08-28T07:29:56.030Z,27.74
2022-08-28T07:31:57.753Z,27.62
2022-08-28T07:33:59.600Z,27.90
2022-08-28T07:36:01.411Z,27.58
2022-08-28T07:38:03.221Z,28.03
2022-08-28T07:40:05.331Z,27.84
2022-08-28T07:42:10.175Z,28.17
2022-08-28T07:44:14.013Z,28.07
2022-08-28T07:46:15.820Z,28.31
2022-08-28T07:48:18.118Z,28.73
2022-08-28T07:50:23.214Z,28.38
2022-08-28T07:52:24.965Z,28.39
2022-08-28T07:54:27.125Z,28.35
2022-08-28T07:56:29.097Z,28.58
2022-08-28T07:58:30.975Z,28.26
2022-08-28T08:00:32.752Z,28.72
2022-08-28T08:02:34.468Z,27.77
2022-08-28T08:04:36.299Z,28.08
2022-08-28T08:06:39.329Z,28.14
2022-08-28T08:08:41.106Z,28.00
2022-08-28T08:10:42.933Z,27.93
2022-08-28T08:12:45.018Z,28.01
2022-08-28T08:14:47.166Z,28.12
2022-08-28T08:16:49.663Z,28.01
2022-08-28T08:18:52.588Z,28.40
2022-08-28T08:20:54.332Z,28.05
2022-08-28T08:22:56.072Z,27.60
2022-08-28T08:24:57.869Z,27.78
2022-08-28T08:27:02.109Z,27.54
2022-08-28T08:29:04.062Z,28.02
2022-08-28T08:31:14.459Z,28.28
2022-08-28T08:33:16.461Z,28.05
2022-08-28T08:35:18.357Z,27.45
2022-08-28T08:37:20.189Z,27.78
2022-08-28T08:39:21.963Z,27.75
2022-08-28T08:41:32.401Z,27.87
2022-08-28T08:43:51.289Z,28.20
2022-08-28T08:45:53.340Z,28.26
2022-08-28T08:47:56.932Z,28.60
2022-08-28T08:50:00.418Z,28.53
2022-08-28T08:52:22.469Z,28.33
2022-08-28T08:54:24.217Z,28.42
2022-08-28T08:56:35.014Z,28.59
2022-08-28T08:58:42.982Z,28.27
2022-08-28T09:01:20.466Z,28.44
2022-08-28T09:03:32.477Z,28.39
2022-08-28T09:06:00.913Z,28.74
2022-08-28T09:08:05.187Z,28.69
2022-08-28T09:10:09.933Z,28.81
2022-08-28T09:12:19.550Z,28.87
2022-08-28T09:14:55.533Z,28.71
2022-08-28T09:16:58.595Z,28.82
2022-08-28T09:19:01.431Z,28.75
2022-08-28T09:21:03.210Z,29.05
2022-08-28T09:23:12.579Z,29.17
2022-08-28T09:25:52.402Z,29.33
2022-08-28T09:27:54.481Z,29.38
2022-08-28T09:30:07.600Z,29.40
2022-08-28T09:32:23.025Z,29.26
2022-08-28T09:34:29.594Z,29.45
2022-08-28T09:36:35.518Z,29.51
2022-08-28T09:38:37.264Z,29.59
2022-08-28T09:40:39.109Z,29.70
2022-08-28T09:42:40.901Z,29.46
2022-08-28T09:44:59.790Z,29.12
2022-08-28T09:47:02.052Z,29.20
2022-08-28T09:49:14.547Z,29.62
2022-08-28T09:51:22.358Z,29.45
2022-08-28T09:53:24.120Z,29.52
2022-08-28T09:55:59.069Z,29.94
2022-08-28T09:58:01.351Z,29.82
2022-08-28T10:00:04.406Z,29.81
2022-08-28T10:02:33.848Z,29.51
2022-08-28T10:04:47.489Z,29.34
2022-08-28T10:06:51.113Z,29.73
2022-08-28T10:09:22.168Z,29.28
2022-08-28T10:11:44.562Z,29.35
2022-08-28T10:13:58.295Z,29.44
2022-08-28T10:16:26.074Z,28.92
2022-08-28T10:18:49.411Z,29.36
2022-08-28T10:20:53.763Z,29.28
2022-08-28T10:23:22.760Z,29.28
2022-08-28T10:25:36.993Z,28.89
2022-08-28T10:27:51.630Z,28.95
2022-08-28T10:30:06.940Z,29.18
2022-08-28T10:32:25.552Z,28.83
2022-08-28T10:34:40.413Z,28.95
2022-08-28T10:36:46.954Z,29.08
2022-08-28T10:39:11.661Z,29.42
2022-08-28T10:41:25.515Z,29.27
2022-08-28T10:43:36.435Z,29.09
2022-08-28T10:45:39.649Z,28.74
2022-08-28T10:47:45.967Z,28.72
2022-08-28T10:49:50.921Z,28.76
2022-08-28T10:52:19.671Z,28.73
2022-08-28T10:55:09.559Z,29.01
2022-08-28T10:57:59.552Z,28.82
2022-08-28T11:00:08.865Z,29.13
2022-08-28T11:02:12.921Z,28.84
2022-08-28T11:04:25.153Z,28.91
2022-08-28T11:06:40.848Z,28.81
2022-08-28T11:08:50.068Z,28.95
2022-08-28T11:10:53.668Z,28.93
2022-08-28T11:12:55.979Z,28.78
2022-08-28T11:14:58.813Z,28.78
2022-08-28T11:17:28.400Z,28.42
2022-08-28T11:19:52.519Z,28.42
2022-08-28T11:22:10.551Z,28.39
2022-08-28T11:24:18.704Z,28.70
2022-08-28T11:26:32.511Z,28.53
2022-08-28T11:28:35.193Z,28.53
2022-08-28T11:30:41.214Z,28.62
2022-08-28T11:32:52.294Z,28.72
2022-08-28T11:35:25.787Z,29.12
2022-08-28T11:37:45.372Z,28.93
2022-08-28T11:39:47.172Z,29.33
2022-08-28T11:42:10.701Z,29.28
2022-08-28T11:44:12.534Z,29.27
2022-08-28T11:46:28.035Z,29.30
2022-08-28T11:48:47.408Z,29.31
2022-08-28T11:51:11.332Z,29.27
2022-08-28T11:53:38.887Z,28.92
2022-08-28T11:56:21.746Z,29.18
2022-08-28T11:58:38.740Z,29.22
2022-08-28T12:00:49.591Z,29.18
2022-08-28T12:03:13.945Z,29.03
2022-08-28T12:05:15.909Z,28.84
2022-08-28T12:07:21.362Z,28.74
2022-08-28T12:09:42.916Z,29.23
2022-08-28T12:11:44.603Z,29.29
2022-08-28T12:13:52.143Z,29.18
2022-08-28T12:16:06.720Z,29.33
2022-08-28T12:18:11.553Z,29.37
2022-08-28T12:20:23.249Z,29.28
2022-08-28T12:22:41.220Z,29.19
2022-08-28T12:24:58.586Z,28.89
2022-08-28T12:27:02.094Z,29.24
2022-08-28T12:29:20.783Z,29.50
2022-08-28T12:31:40.031Z,29.52
2022-08-28T12:34:06.685Z,29.49
2022-08-28T12:36:16.960Z,29.48
2022-08-28T12:38:21.857Z,29.67
2022-08-28T12:40:28.511Z,29.64
2022-08-28T12:42:35.078Z,29.41
2022-08-28T12:44:36.900Z,29.38
2022-08-28T12:46:42.140Z,29.60
2022-08-28T12:49:02.472Z,29.19
2022-08-28T12:51:24.621Z,29.05
2022-08-28T12:53:26.621Z,29.23
2022-08-28T12:55:31.430Z,29.33
2022-08-28T12:57:33.249Z,29.52
2022-08-28T12:59:38.751Z,29.57
2022-08-28T13:01:40.725Z,29.44
2022-08-28T13:03:49.965Z,29.41
2022-08-28T13:06:03.508Z,29.23
2022-08-28T13:08:09.600Z,29.09
2022-08-28T13:10:26.808Z,29.01
2022-08-28T13:12:55.171Z,28.84
2022-08-28T13:14:58.543Z,28.67
2022-08-28T13:17:00.359Z,28.25
2022-08-28T13:19:04.897Z,28.45
2022-08-28T13:21:32.983Z,28.62
2022-08-28T13:23:35.996Z,28.56
2022-08-28T13:25:38.223Z,28.46
2022-08-28T13:27:40.054Z,28.30
2022-08-28T13:30:08.012Z,28.28
2022-08-28T13:32:16.270Z,28.27
2022-08-28T13:34:17.957Z,27.95
2022-08-28T13:36:22.709Z,28.05
2022-08-28T13:38:25.112Z,27.93
2022-08-28T13:40:57.389Z,27.92
2022-08-28T13:43:06.303Z,27.86
2022-08-28T13:45:08.672Z,27.66
2022-08-28T13:47:10.445Z,27.64
2022-08-28T13:49:12.183Z,27.80
2022-08-28T13:51:20.621Z,27.86
2022-08-28T13:53:22.975Z,27.80
2022-08-28T13:55:25.004Z,27.79
2022-08-28T13:57:28.062Z,27.72
2022-08-28T13:59:30.590Z,27.74
2022-08-28T14:01:40.187Z,27.86
2022-08-28T14:03:44.290Z,27.91
2022-08-28T14:05:46.121Z,28.06
2022-08-28T14:07:47.863Z,27.94
2022-08-28T14:09:55.470Z,27.74
2022-08-28T14:11:58.101Z,27.90
2022-08-28T14:13:59.874Z,27.92
2022-08-28T14:16:05.913Z,27.83
2022-08-28T14:18:07.777Z,27.69
2022-08-28T14:20:09.919Z,27.89
2022-08-28T14:22:11.650Z,28.09
2022-08-28T14:24:13.629Z,28.16
2022-08-28T14:26:15.337Z,28.03
2022-08-28T14:28:17.556Z,27.86
2022-08-28T14:30:19.370Z,27.81
2022-08-28T14:32:21.327Z,27.89
2022-08-28T14:34:23.704Z,27.78
2022-08-28T14:36:28.614Z,27.69
2022-08-28T14:38:30.405Z,27.57
2022-08-28T14:40:32.186Z,27.54
2022-08-28T14:42:34.317Z,27.56
2022-08-28T14:44:36.143Z,27.48
2022-08-28T14:46:38.085Z,27.38
2022-08-28T14:48:39.807Z,27.32
2022-08-28T14:50:43.944Z,27.42
2022-08-28T14:52:45.702Z,27.26
2022-08-28T14:54:52.493Z,27.27
2022-08-28T14:56:54.911Z,27.40
2022-08-28T14:58:58.141Z,27.41
2022-08-28T15:01:00.092Z,27.40
2022-08-28T15:03:01.889Z,27.37
2022-08-28T15:05:03.879Z,27.32
2022-08-28T15:07:10.400Z,27.47
2022-08-28T15:09:13.992Z,27.43
2022-08-28T15:11:19.255Z,27.48
2022-08-28T15:13:21.927Z,27.48
2022-08-28T15:15:23.822Z,27.45
2022-08-28T15:17:34.158Z,27.45
2022-08-28T15:19:36.403Z,27.46
2022-08-28T15:21:46.238Z,27.29
2022-08-28T15:23:56.096Z,27.22
2022-08-28T15:25:57.817Z,27.15
2022-08-28T15:27:59.614Z,27.22
2022-08-28T15:30:01.351Z,27.10
2022-08-28T15:32:03.473Z,26.92
2022-08-28T15:34:09.892Z,26.77
2022-08-28T15:36:15.454Z,26.58
2022-08-28T15:38:17.273Z,26.59
2022-08-28T15:40:20.293Z,26.41
2022-08-28T15:42:22.041Z,26.18
2022-08-28T15:44:24.344Z,26.23
2022-08-28T15:46:26.718Z,26.27
2022-08-28T15:48:30.332Z,26.26
2022-08-28T15:50:32.263Z,26.28
2022-08-28T15:52:34.005Z,26.19
2022-08-28T15:54:35.742Z,26.16
2022-08-28T15:56:37.521Z,26.17
2022-08-28T15:58:39.574Z,26.19
2022-08-28T16:00:41.562Z,26.11
2022-08-28T16:02:43.378Z,26.23
2022-08-28T16:04:45.098Z,26.27
2022-08-28T16:06:47.054Z,26.31
2022-08-28T16:08:49.997Z,26.34
2022-08-28T16:10:52.991Z,26.42
2022-08-28T16:12:57.450Z,26.49
2022-08-28T16:14:59.832Z,26.50
2022-08-28T16:17:05.738Z,26.46
2022-08-28T16:19:12.714Z,26.47
2022-08-28T16:21:15.618Z,26.48
2022-08-28T16:23:17.409Z,26.31
2022-08-28T16:25:19.389Z,26.34
2022-08-28T16:27:21.484Z,26.29
2022-08-28T16:29:23.242Z,26.30
2022-08-28T16:31:25.061Z,26.19
2022-08-28T16:33:26.899Z,26.01
2022-08-28T16:35:28.621Z,26.06
2022-08-28T16:37:39.669Z,26.06
2022-08-28T16:39:41.978Z,26.14
2022-08-28T16:41:44.027Z,26.22
2022-08-28T16:43:46.844Z,26.05
2022-08-28T16:45:48.617Z,26.14
2022-08-28T16:47:50.627Z,26.12
2022-08-28T16:49:59.764Z,26.05
2022-08-28T16:52:01.654Z,25.97
2022-08-28T16:54:03.566Z,25.99
2022-08-28T16:56:05.417Z,25.94
2022-08-28T16:58:07.306Z,25.79
2022-08-28T17:00:11.917Z,25.68
2022-08-28T17:02:15.983Z,25.69
2022-08-28T17:04:18.386Z,25.58
2022-08-28T17:06:26.933Z,25.44
2022-08-28T17:08:28.819Z,25.25
2022-08-28T17:10:30.582Z,25.27
2022-08-28T17:12:32.644Z,25.20
2022-08-28T17:14:34.442Z,25.04
2022-08-28T17:16:36.249Z,24.94
2022-08-28T17:18:40.954Z,24.72
2022-08-28T17:20:49.981Z,24.47
2022-08-28T17:22:51.699Z,24.38
2022-08-28T17:24:53.486Z,24.41
2022-08-28T17:26:55.214Z,24.41
2022-08-28T17:28:56.985Z,24.35
2022-08-28T17:30:59.022Z,24.38
2022-08-28T17:33:00.795Z,24.37
2022-08-28T17:35:03.409Z,24.26
2022-08-28T17:37:05.202Z,24.20
2022-08-28T17:39:12.040Z,24.15
2022-08-28T17:41:14.914Z,23.96
2022-08-28T17:43:16.682Z,23.76
2022-08-28T17:45:18.504Z,23.84
2022-08-28T17:47:27.220Z,23.80
2022-08-28T17:49:32.656Z,23.74
2022-08-28T17:51:42.264Z,23.79
2022-08-28T17:53:45.729Z,23.64
2022-08-28T17:55:47.461Z,23.59
2022-08-28T17:57:49.265Z,23.70
2022-08-28T17:59:51.148Z,23.50
2022-08-28T18:01:53.589Z,23.39
2022-08-28T18:03:55.420Z,23.38
2022-08-28T18:05:58.153Z,23.33
2022-08-28T18:07:59.959Z,23.32
2022-08-28T18:10:01.752Z,23.11
2022-08-28T18:12:04.434Z,22.92
2022-08-28T18:14:07.180Z,22.94
2022-08-28T18:16:09.219Z,22.90
2022-08-28T18:18:12.708Z,22.94
2022-08-28T18:20:14.566Z,22.72
2022-08-28T18:22:16.297Z,22.53
2022-08-28T18:24:18.074Z,22.46
2022-08-28T18:26:20.191Z,22.17
2022-08-28T18:28:24.562Z,22.09
2022-08-28T18:30:26.475Z,22.21
2022-08-28T18:32:28.226Z,22.19
2022-08-28T18:34:29.993Z,22.16
2022-08-28T18:36:31.791Z,22.21
2022-08-28T18:38:33.657Z,22.28
2022-08-28T18:40:35.992Z,22.15
2022-08-28T18:42:37.834Z,22.15
2022-08-28T18:44:39.574Z,21.85
2022-08-28T18:46:42.711Z,21.74
2022-08-28T18:48:44.540Z,21.84
2022-08-28T18:50:47.420Z,21.64
2022-08-28T18:52:53.463Z,21.62
2022-08-28T18:55:00.548Z,21.63
2022-08-28T18:57:04.060Z,21.81
2022-08-28T18:59:07.277Z,21.92
2022-08-28T19:01:10.252Z,21.73
2022-08-28T19:03:12.433Z,21.81
2022-08-28T19:05:14.345Z,21.68
2022-08-28T19:07:16.087Z,21.73
2022-08-28T19:09:20.284Z,21.77
2022-08-28T19:11:22.662Z,21.75
2022-08-28T19:13:24.379Z,21.66
2022-08-28T19:15:26.167Z,21.60
2022-08-28T19:17:28.296Z,21.52
2022-08-28T19:19:32.755Z,21.47
2022-08-28T19:21:34.484Z,21.05
2022-08-28T19:23:36.791Z,20.76
2022-08-28T19:25:38.571Z,20.84
2022-08-28T19:27:41.622Z,20.87
2022-08-28T19:29:43.347Z,20.79
2022-08-28T19:31:45.108Z,20.81
2022-08-28T19:33:47.735Z,20.77
2022-08-28T19:35:49.566Z,20.71
2022-08-28T19:37:51.933Z,20.76
2022-08-28T19:39:56.037Z,20.83
2022-08-28T19:41:58.270Z,20.81
2022-08-28T19:44:00.285Z,20.73
2022-08-28T19:46:02.049Z,20.77
2022-08-28T19:48:04.002Z,20.65
2022-08-28T19:50:14.368Z,20.65
2022-08-28T19:52:16.105Z,20.68
2022-08-28T19:54:17.872Z,20.66
2022-08-28T19:56:19.636Z,20.62
2022-08-28T19:58:21.453Z,20.59
2022-08-28T20:00:27.991Z,20.60
2022-08-28T20:02:29.758Z,20.52
2022-08-28T20:04:32.126Z,20.51
2022-08-28T20:06:34.902Z,20.33
2022-08-28T20:08:36.701Z,20.52
2022-08-28T20:10:38.836Z,20.55
2022-08-28T20:12:41.443Z,20.50
2022-08-28T20:14:49.885Z,20.60
2022-08-28T20:16:52.047Z,20.64
2022-08-28T20:18:54.892Z,20.62
2022-08-28T20:20:56.662Z,20.61
2022-08-28T20:22:58.438Z,20.66
2022-08-28T20:25:01.135Z,20.51
2022-08-28T20:27:02.901Z,20.43
2022-08-28T20:29:06.753Z,20.43
2022-08-28T20:31:10.692Z,20.50
2022-08-28T20:33:13.372Z,20.49
2022-08-28T20:35:15.219Z,20.46
2022-08-28T20:37:16.984Z,20.46
2022-08-28T20:39:20.526Z,20.48
2022-08-28T20:41:22.150Z,20.32
2022-08-28T20:43:23.905Z,20.38
2022-08-28T20:45:25.717Z,20.43
2022-08-28T20:47:28.668Z,20.52
2022-08-28T20:49:30.400Z,20.51
2022-08-28T20:51:32.166Z,20.57
2022-08-28T20:53:37.282Z,20.56
2022-08-28T20:55:39.720Z,20.48
2022-08-28T20:57:41.602Z,20.31
2022-08-28T20:59:44.823Z,20.25
2022-08-28T21:01:46.683Z,20.07
2022-08-28T21:03:48.537Z,20.06
2022-08-28T21:05:50.649Z,19.93
2022-08-28T21:07:52.393Z,19.90
2022-08-28T21:10:04.879Z,19.96
2022-08-28T21:12:08.541Z,19.97
2022-08-28T21:14:10.752Z,19.87
2022-08-28T21:16:12.523Z,20.06
2022-08-28T21:18:14.463Z,20.13
2022-08-28T21:20:16.747Z,19.94
2022-08-28T21:22:18.860Z,19.98
2022-08-28T21:24:22.175Z,20.11
2022-08-28T21:26:24.255Z,20.24
2022-08-28T21:28:26.342Z,20.32
2022-08-28T21:30:28.505Z,20.31
2022-08-28T21:32:31.648Z,20.35
2022-08-28T21:34:33.378Z,20.36
2022-08-28T21:36:37.143Z,20.30
2022-08-28T21:38:39.228Z,20.28
2022-08-28T21:40:41.678Z,20.41
2022-08-28T21:42:44.069Z,20.47
2022-08-28T21:44:51.498Z,20.52
2022-08-28T21:46:53.826Z,20.50
2022-08-28T21:48:55.649Z,20.59
2022-08-28T21:51:04.550Z,20.61
2022-08-28T21:53:06.548Z,20.52
2022-08-28T21:55:11.765Z,20.38
2022-08-28T21:57:14.154Z,20.33
2022-08-28T21:59:15.875Z,20.47
2022-08-28T22:01:18.661Z,20.55
2022-08-28T22:03:21.659Z,20.56
2022-08-28T22:05:23.529Z,20.52
2022-08-28T22:07:25.249Z,20.61
2022-08-28T22:09:27.440Z,20.64
2022-08-28T22:11:29.281Z,20.67
2022-08-28T22:13:31.031Z,20.59
2022-08-28T22:15:33.269Z,20.48
2022-08-28T22:17:34.993Z,20.41
2022-08-28T22:19:36.724Z,20.41
2022-08-28T22:21:38.507Z,20.44
2022-08-28T22:23:40.661Z,20.53
2022-08-28T22:25:42.923Z,20.43
2022-08-28T22:27:44.688Z,20.42
2022-08-28T22:29:46.463Z,20.44
2022-08-28T22:31:48.256Z,20.50
2022-08-28T22:33:50.344Z,20.56
2022-08-28T22:35:52.773Z,20.61
2022-08-28T22:37:54.988Z,20.60
2022-08-28T22:39:56.769Z,20.61
2022-08-28T22:41:58.566Z,20.65
2022-08-28T22:44:00.668Z,20.55
2022-08-28T22:46:03.540Z,20.59
2022-08-28T22:48:05.853Z,20.55
2022-08-28T22:50:08.154Z,20.47
2022-08-28T22:52:10.814Z,20.31
2022-08-28T22:54:12.541Z,20.16
2022-08-28T22:56:16.044Z,20.19
2022-08-28T22:58:17.779Z,20.20
2022-08-28T23:00:23.010Z,20.19
2022-08-28T23:02:27.372Z,20.20
2022-08-28T23:04:29.414Z,20.21
2022-08-28T23:06:32.255Z,20.08
2022-08-28T23:08:34.651Z,20.01
2022-08-28T23:10:58.144Z,19.91
2022-08-28T23:12:58.155Z,19.87
2022-08-28T23:15:00.132Z,19.95
2022-08-28T23:17:01.946Z,19.95
2022-08-28T23:19:09.196Z,19.94
2022-08-28T23:21:11.280Z,20.04
2022-08-28T23:23:13.186Z,20.10
2022-08-28T23:25:18.850Z,20.10
2022-08-28T23:27:35.750Z,20.05
2022-08-28T23:29:38.205Z,20.00
2022-08-28T23:31:40.504Z,20.06
2022-08-28T23:33:42.450Z,20.10
2022-08-28T23:35:44.259Z,20.11
2022-08-28T23:37:48.872Z,20.05
2022-08-28T23:39:54.586Z,20.04
2022-08-28T23:41:56.411Z,20.09
2022-08-28T23:43:58.196Z,20.01
2022-08-28T23:46:00.181Z,19.97
2022-08-28T23:48:02.078Z,19.92
2022-08-28T23:50:06.846Z,19.82
2022-08-28T23:52:08.613Z,19.81
2022-08-28T23:54:11.827Z,19.66
2022-08-28T23:56:13.960Z,19.82
2022-08-28T23:58:16.486Z,19.79
